Terminal Aerodrome Forecast
Issued by NWS New Orleans/Baton Rouge, LA

Home | Current Version | Previous Version | Text Only | Print | Product List | Glossary On
Versions: 1 2 3 4 5 6 7 8 9 10 11 12 13 14 15 16 17
000
FTUS44 KLIX 172339
TAFNEW
TAF
KNEW 172339Z 1800/1824 18007KT P6SM FEW025 FEW200
     FM181100 20007KT P6SM FEW008 SCT090
     FM181300 20009KT P6SM SCT008 BKN070
     FM181500 21012KT P6SM SCT008 BKN030
     FM181800 22015G24KT P6SM SCT020 BKN035
     FM182300 24013G21KT P6SM SCT015 BKN030 PROB30 1823/1824 4SM
      -SHRA BKN015=

USA.gov is the U.S. government's official web portal to all federal, state and local government web resources and services.